sensor_id;sensor_type;location;lat;lon;timestamp;P1;durP1;ratioP1;P2;durP2;ratioP2
19285;SDS011;9776;50.798;6.430;2023-04-03T00:01:01;2.30;;;2.10;;
19285;SDS011;9776;50.798;6.430;2023-04-03T00:03:29;2.15;;;2.05;;
19285;SDS011;9776;50.798;6.430;2023-04-03T00:05:57;2.20;;;2.10;;
19285;SDS011;9776;50.798;6.430;2023-04-03T00:08:24;2.20;;;2.10;;
19285;SDS011;9776;50.798;6.430;2023-04-03T00:10:50;2.83;;;2.10;;
19285;SDS011;9776;50.798;6.430;2023-04-03T00:13:17;2.08;;;1.98;;
19285;SDS011;9776;50.798;6.430;2023-04-03T00:15:44;2.15;;;2.05;;
19285;SDS011;9776;50.798;6.430;2023-04-03T00:18:11;2.00;;;1.90;;
19285;SDS011;9776;50.798;6.430;2023-04-03T00:20:38;2.00;;;1.90;;
19285;SDS011;9776;50.798;6.430;2023-04-03T00:23:06;2.05;;;1.95;;
19285;SDS011;9776;50.798;6.430;2023-04-03T00:25:33;2.08;;;1.98;;
19285;SDS011;9776;50.798;6.430;2023-04-03T00:28:00;2.17;;;2.00;;
19285;SDS011;9776;50.798;6.430;2023-04-03T00:30:27;1.83;;;1.73;;
19285;SDS011;9776;50.798;6.430;2023-04-03T00:32:54;2.50;;;2.40;;
19285;SDS011;9776;50.798;6.430;2023-04-03T00:35:21;2.03;;;1.90;;
19285;SDS011;9776;50.798;6.430;2023-04-03T00:37:50;2.05;;;1.95;;
19285;SDS011;9776;50.798;6.430;2023-04-03T00:40:19;2.25;;;2.15;;
19285;SDS011;9776;50.798;6.430;2023-04-03T00:42:48;2.00;;;1.90;;
19285;SDS011;9776;50.798;6.430;2023-04-03T00:45:29;1.92;;;1.83;;
19285;SDS011;9776;50.798;6.430;2023-04-03T00:47:59;2.45;;;2.35;;
19285;SDS011;9776;50.798;6.430;2023-04-03T00:50:28;2.30;;;2.20;;
19285;SDS011;9776;50.798;6.430;2023-04-03T00:52:55;2.00;;;1.90;;
19285;SDS011;9776;50.798;6.430;2023-04-03T00:55:24;2.10;;;2.00;;
19285;SDS011;9776;50.798;6.430;2023-04-03T00:57:51;2.20;;;2.10;;
19285;SDS011;9776;50.798;6.430;2023-04-03T01:00:19;2.25;;;2.15;;
19285;SDS011;9776;50.798;6.430;2023-04-03T01:02:47;2.28;;;2.17;;
19285;SDS011;9776;50.798;6.430;2023-04-03T01:05:14;2.10;;;2.00;;
19285;SDS011;9776;50.798;6.430;2023-04-03T01:07:43;2.33;;;2.22;;
19285;SDS011;9776;50.798;6.430;2023-04-03T01:10:12;2.28;;;2.17;;
19285;SDS011;9776;50.798;6.430;2023-04-03T01:12:43;2.28;;;2.17;;
19285;SDS011;9776;50.798;6.430;2023-04-03T01:15:12;2.20;;;2.10;;
19285;SDS011;9776;50.798;6.430;2023-04-03T01:17:41;2.58;;;2.33;;
19285;SDS011;9776;50.798;6.430;2023-04-03T01:23:22;2.22;;;2.10;;
19285;SDS011;9776;50.798;6.430;2023-04-03T01:25:54;2.10;;;2.00;;
19285;SDS011;9776;50.798;6.430;2023-04-03T01:28:25;2.13;;;2.03;;
19285;SDS011;9776;50.798;6.430;2023-04-03T01:30:56;2.35;;;2.25;;
19285;SDS011;9776;50.798;6.430;2023-04-03T01:33:30;2.35;;;2.08;;
19285;SDS011;9776;50.798;6.430;2023-04-03T01:35:57;2.38;;;2.25;;
19285;SDS011;9776;50.798;6.430;2023-04-03T01:38:24;2.40;;;2.30;;
19285;SDS011;9776;50.798;6.430;2023-04-03T01:40:50;2.55;;;2.35;;
19285;SDS011;9776;50.798;6.430;2023-04-03T01:43:17;2.30;;;2.20;;
19285;SDS011;9776;50.798;6.430;2023-04-03T01:45:44;2.35;;;2.15;;
19285;SDS011;9776;50.798;6.430;2023-04-03T01:48:11;2.20;;;2.10;;
19285;SDS011;9776;50.798;6.430;2023-04-03T01:50:40;2.10;;;2.00;;
19285;SDS011;9776;50.798;6.430;2023-04-03T01:53:06;2.20;;;2.10;;
19285;SDS011;9776;50.798;6.430;2023-04-03T01:55:33;2.20;;;2.10;;
19285;SDS011;9776;50.798;6.430;2023-04-03T01:57:59;2.22;;;2.13;;
19285;SDS011;9776;50.798;6.430;2023-04-03T02:00:26;1.90;;;1.80;;
19285;SDS011;9776;50.798;6.430;2023-04-03T02:02:53;2.28;;;2.08;;
19285;SDS011;9776;50.798;6.430;2023-04-03T02:05:19;2.00;;;1.90;;
19285;SDS011;9776;50.798;6.430;2023-04-03T02:07:47;2.22;;;2.13;;
19285;SDS011;9776;50.798;6.430;2023-04-03T02:10:14;2.47;;;2.17;;
19285;SDS011;9776;50.798;6.430;2023-04-03T02:12:41;2.70;;;2.50;;
19285;SDS011;9776;50.798;6.430;2023-04-03T02:15:08;2.67;;;2.47;;
19285;SDS011;9776;50.798;6.430;2023-04-03T02:17:35;2.28;;;2.17;;
19285;SDS011;9776;50.798;6.430;2023-04-03T02:20:02;2.45;;;2.30;;
19285;SDS011;9776;50.798;6.430;2023-04-03T02:22:29;2.58;;;2.47;;
19285;SDS011;9776;50.798;6.430;2023-04-03T02:24:57;2.30;;;2.20;;
19285;SDS011;9776;50.798;6.430;2023-04-03T02:27:23;2.45;;;2.35;;
19285;SDS011;9776;50.798;6.430;2023-04-03T02:29:50;2.13;;;2.03;;
19285;SDS011;9776;50.798;6.430;2023-04-03T02:32:17;2.70;;;2.50;;
19285;SDS011;9776;50.798;6.430;2023-04-03T02:34:43;2.50;;;2.30;;
19285;SDS011;9776;50.798;6.430;2023-04-03T02:37:10;3.08;;;2.88;;
19285;SDS011;9776;50.798;6.430;2023-04-03T02:39:37;2.30;;;2.20;;
19285;SDS011;9776;50.798;6.430;2023-04-03T02:42:05;2.55;;;2.40;;
19285;SDS011;9776;50.798;6.430;2023-04-03T02:44:32;2.92;;;2.72;;
19285;SDS011;9776;50.798;6.430;2023-04-03T02:46:58;2.20;;;2.10;;
19285;SDS011;9776;50.798;6.430;2023-04-03T02:49:25;2.63;;;2.50;;
19285;SDS011;9776;50.798;6.430;2023-04-03T02:51:52;2.40;;;2.30;;
19285;SDS011;9776;50.798;6.430;2023-04-03T02:54:18;2.20;;;2.10;;
19285;SDS011;9776;50.798;6.430;2023-04-03T02:56:45;2.28;;;2.17;;
19285;SDS011;9776;50.798;6.430;2023-04-03T02:59:13;2.20;;;2.10;;
19285;SDS011;9776;50.798;6.430;2023-04-03T03:01:40;2.60;;;2.50;;
19285;SDS011;9776;50.798;6.430;2023-04-03T03:04:07;2.30;;;2.17;;
19285;SDS011;9776;50.798;6.430;2023-04-03T03:06:33;2.33;;;2.20;;
19285;SDS011;9776;50.798;6.430;2023-04-03T03:09:00;2.35;;;2.15;;
19285;SDS011;9776;50.798;6.430;2023-04-03T03:11:26;2.53;;;2.33;;
19285;SDS011;9776;50.798;6.430;2023-04-03T03:13:53;2.53;;;2.33;;
19285;SDS011;9776;50.798;6.430;2023-04-03T03:16:21;2.72;;;2.53;;
19285;SDS011;9776;50.798;6.430;2023-04-03T03:18:48;2.63;;;2.45;;
19285;SDS011;9776;50.798;6.430;2023-04-03T03:21:14;2.28;;;2.17;;
19285;SDS011;9776;50.798;6.430;2023-04-03T03:23:41;2.80;;;2.60;;
19285;SDS011;9776;50.798;6.430;2023-04-03T03:26:08;2.97;;;2.20;;
19285;SDS011;9776;50.798;6.430;2023-04-03T03:28:36;2.22;;;2.13;;
19285;SDS011;9776;50.798;6.430;2023-04-03T03:31:04;2.60;;;2.40;;
19285;SDS011;9776;50.798;6.430;2023-04-03T03:33:32;2.25;;;2.15;;
19285;SDS011;9776;50.798;6.430;2023-04-03T03:36:00;2.58;;;2.38;;
19285;SDS011;9776;50.798;6.430;2023-04-03T03:38:26;2.72;;;2.50;;
19285;SDS011;9776;50.798;6.430;2023-04-03T03:40:53;2.60;;;2.40;;
19285;SDS011;9776;50.798;6.430;2023-04-03T03:43:20;2.60;;;2.40;;
19285;SDS011;9776;50.798;6.430;2023-04-03T03:45:49;2.50;;;2.30;;
19285;SDS011;9776;50.798;6.430;2023-04-03T03:48:17;2.63;;;2.42;;
19285;SDS011;9776;50.798;6.430;2023-04-03T03:50:45;2.53;;;2.33;;
19285;SDS011;9776;50.798;6.430;2023-04-03T03:53:12;2.80;;;2.60;;
19285;SDS011;9776;50.798;6.430;2023-04-03T03:55:38;2.50;;;2.40;;
19285;SDS011;9776;50.798;6.430;2023-04-03T03:58:05;2.72;;;2.53;;
19285;SDS011;9776;50.798;6.430;2023-04-03T04:00:31;3.60;;;3.35;;
19285;SDS011;9776;50.798;6.430;2023-04-03T04:02:58;2.75;;;2.55;;
19285;SDS011;9776;50.798;6.430;2023-04-03T04:05:25;2.63;;;2.50;;
19285;SDS011;9776;50.798;6.430;2023-04-03T04:07:53;3.85;;;2.80;;
19285;SDS011;9776;50.798;6.430;2023-04-03T04:10:20;3.00;;;2.80;;
19285;SDS011;9776;50.798;6.430;2023-04-03T04:12:47;3.40;;;3.20;;
19285;SDS011;9776;50.798;6.430;2023-04-03T04:15:16;3.75;;;3.45;;
19285;SDS011;9776;50.798;6.430;2023-04-03T04:17:43;3.78;;;3.25;;
19285;SDS011;9776;50.798;6.430;2023-04-03T04:20:10;2.87;;;2.67;;
19285;SDS011;9776;50.798;6.430;2023-04-03T04:22:37;3.08;;;2.88;;
19285;SDS011;9776;50.798;6.430;2023-04-03T04:25:06;2.67;;;2.50;;
19285;SDS011;9776;50.798;6.430;2023-04-03T04:27:33;3.00;;;2.80;;
19285;SDS011;9776;50.798;6.430;2023-04-03T04:30:00;2.70;;;2.50;;
19285;SDS011;9776;50.798;6.430;2023-04-03T04:32:27;4.10;;;2.37;;
19285;SDS011;9776;50.798;6.430;2023-04-03T04:34:54;2.90;;;2.50;;
19285;SDS011;9776;50.798;6.430;2023-04-03T04:37:21;3.03;;;2.30;;
19285;SDS011;9776;50.798;6.430;2023-04-03T04:39:47;2.60;;;2.40;;
19285;SDS011;9776;50.798;6.430;2023-04-03T04:42:15;2.70;;;2.50;;
19285;SDS011;9776;50.798;6.430;2023-04-03T04:44:42;3.13;;;2.83;;
19285;SDS011;9776;50.798;6.430;2023-04-03T04:47:09;2.50;;;2.30;;
19285;SDS011;9776;50.798;6.430;2023-04-03T04:49:35;2.57;;;2.40;;
19285;SDS011;9776;50.798;6.430;2023-04-03T04:52:02;2.50;;;2.33;;
19285;SDS011;9776;50.798;6.430;2023-04-03T04:54:29;2.57;;;2.40;;
19285;SDS011;9776;50.798;6.430;2023-04-03T04:56:55;2.90;;;2.70;;
19285;SDS011;9776;50.798;6.430;2023-04-03T04:59:25;2.90;;;2.70;;
19285;SDS011;9776;50.798;6.430;2023-04-03T05:01:51;2.80;;;2.63;;
19285;SDS011;9776;50.798;6.430;2023-04-03T05:04:18;3.30;;;3.00;;
19285;SDS011;9776;50.798;6.430;2023-04-03T05:06:45;2.70;;;2.50;;
19285;SDS011;9776;50.798;6.430;2023-04-03T05:09:12;3.17;;;2.97;;
19285;SDS011;9776;50.798;6.430;2023-04-03T05:11:38;3.07;;;2.87;;
19285;SDS011;9776;50.798;6.430;2023-04-03T05:14:05;3.40;;;3.10;;
19285;SDS011;9776;50.798;6.430;2023-04-03T05:16:33;4.13;;;2.90;;
19285;SDS011;9776;50.798;6.430;2023-04-03T05:19:00;2.90;;;2.70;;
19285;SDS011;9776;50.798;6.430;2023-04-03T05:21:27;3.37;;;3.17;;
19285;SDS011;9776;50.798;6.430;2023-04-03T05:23:57;3.50;;;3.20;;
19285;SDS011;9776;50.798;6.430;2023-04-03T05:26:23;2.97;;;2.77;;
19285;SDS011;9776;50.798;6.430;2023-04-03T05:28:50;3.53;;;3.33;;
19285;SDS011;9776;50.798;6.430;2023-04-03T05:31:17;3.70;;;3.50;;
19285;SDS011;9776;50.798;6.430;2023-04-03T05:33:45;3.30;;;3.10;;
19285;SDS011;9776;50.798;6.430;2023-04-03T05:36:12;3.20;;;3.00;;
19285;SDS011;9776;50.798;6.430;2023-04-03T05:38:39;3.00;;;2.80;;
19285;SDS011;9776;50.798;6.430;2023-04-03T05:41:06;3.00;;;2.80;;
19285;SDS011;9776;50.798;6.430;2023-04-03T05:43:33;2.70;;;2.60;;
19285;SDS011;9776;50.798;6.430;2023-04-03T05:46:02;4.03;;;3.17;;
19285;SDS011;9776;50.798;6.430;2023-04-03T05:48:29;3.80;;;3.50;;
19285;SDS011;9776;50.798;6.430;2023-04-03T05:50:57;3.47;;;3.27;;
19285;SDS011;9776;50.798;6.430;2023-04-03T05:53:25;3.47;;;3.17;;
19285;SDS011;9776;50.798;6.430;2023-04-03T05:55:54;3.43;;;3.23;;
19285;SDS011;9776;50.798;6.430;2023-04-03T05:58:20;3.03;;;2.83;;
19285;SDS011;9776;50.798;6.430;2023-04-03T06:00:47;5.30;;;3.27;;
19285;SDS011;9776;50.798;6.430;2023-04-03T06:03:14;3.30;;;3.00;;
19285;SDS011;9776;50.798;6.430;2023-04-03T06:05:41;3.60;;;3.40;;
19285;SDS011;9776;50.798;6.430;2023-04-03T06:08:09;3.57;;;3.27;;
19285;SDS011;9776;50.798;6.430;2023-04-03T06:10:37;3.23;;;3.03;;
19285;SDS011;9776;50.798;6.430;2023-04-03T06:13:04;3.50;;;3.30;;
19285;SDS011;9776;50.798;6.430;2023-04-03T06:15:32;3.90;;;2.90;;
19285;SDS011;9776;50.798;6.430;2023-04-03T06:17:58;3.47;;;3.27;;
19285;SDS011;9776;50.798;6.430;2023-04-03T06:20:25;3.23;;;3.03;;
19285;SDS011;9776;50.798;6.430;2023-04-03T06:22:52;3.63;;;3.33;;
19285;SDS011;9776;50.798;6.430;2023-04-03T06:25:20;3.33;;;3.10;;
19285;SDS011;9776;50.798;6.430;2023-04-03T06:27:47;3.33;;;3.13;;
19285;SDS011;9776;50.798;6.430;2023-04-03T06:30:13;3.67;;;3.37;;
19285;SDS011;9776;50.798;6.430;2023-04-03T06:32:40;3.33;;;3.13;;
19285;SDS011;9776;50.798;6.430;2023-04-03T06:35:08;3.43;;;2.93;;
19285;SDS011;9776;50.798;6.430;2023-04-03T06:37:35;2.90;;;2.70;;
19285;SDS011;9776;50.798;6.430;2023-04-03T06:40:02;3.00;;;2.80;;
19285;SDS011;9776;50.798;6.430;2023-04-03T06:42:31;3.33;;;3.13;;
19285;SDS011;9776;50.798;6.430;2023-04-03T06:44:58;2.72;;;2.60;;
19285;SDS011;9776;50.798;6.430;2023-04-03T06:47:25;3.00;;;2.80;;
19285;SDS011;9776;50.798;6.430;2023-04-03T06:49:52;2.97;;;2.77;;
19285;SDS011;9776;50.798;6.430;2023-04-03T06:52:18;3.00;;;2.80;;
19285;SDS011;9776;50.798;6.430;2023-04-03T06:54:45;3.85;;;3.55;;
19285;SDS011;9776;50.798;6.430;2023-04-03T06:57:13;3.00;;;2.80;;
19285;SDS011;9776;50.798;6.430;2023-04-03T06:59:41;3.00;;;2.80;;
19285;SDS011;9776;50.798;6.430;2023-04-03T07:02:09;3.08;;;2.88;;
19285;SDS011;9776;50.798;6.430;2023-04-03T07:04:37;2.50;;;2.30;;
19285;SDS011;9776;50.798;6.430;2023-04-03T07:07:04;3.03;;;2.80;;
19285;SDS011;9776;50.798;6.430;2023-04-03T07:09:31;2.47;;;2.33;;
19285;SDS011;9776;50.798;6.430;2023-04-03T07:11:57;2.40;;;2.30;;
19285;SDS011;9776;50.798;6.430;2023-04-03T07:14:24;2.47;;;2.28;;
19285;SDS011;9776;50.798;6.430;2023-04-03T07:16:52;2.38;;;2.17;;
19285;SDS011;9776;50.798;6.430;2023-04-03T07:19:19;2.95;;;2.75;;
19285;SDS011;9776;50.798;6.430;2023-04-03T07:21:46;2.90;;;2.70;;
19285;SDS011;9776;50.798;6.430;2023-04-03T07:24:13;2.72;;;2.53;;
19285;SDS011;9776;50.798;6.430;2023-04-03T07:26:39;2.08;;;1.92;;
19285;SDS011;9776;50.798;6.430;2023-04-03T07:29:06;2.72;;;1.90;;
19285;SDS011;9776;50.798;6.430;2023-04-03T07:31:33;2.05;;;1.95;;
19285;SDS011;9776;50.798;6.430;2023-04-03T07:34:01;2.00;;;1.90;;
19285;SDS011;9776;50.798;6.430;2023-04-03T07:36:28;1.70;;;1.60;;
19285;SDS011;9776;50.798;6.430;2023-04-03T07:38:58;1.90;;;1.80;;
19285;SDS011;9776;50.798;6.430;2023-04-03T07:41:24;2.33;;;2.13;;
19285;SDS011;9776;50.798;6.430;2023-04-03T07:43:51;1.73;;;1.63;;
19285;SDS011;9776;50.798;6.430;2023-04-03T07:46:18;1.52;;;1.42;;
19285;SDS011;9776;50.798;6.430;2023-04-03T07:48:45;2.03;;;1.83;;
19285;SDS011;9776;50.798;6.430;2023-04-03T07:51:22;1.70;;;1.60;;
19285;SDS011;9776;50.798;6.430;2023-04-03T07:53:49;1.83;;;1.70;;
19285;SDS011;9776;50.798;6.430;2023-04-03T07:56:16;1.70;;;1.50;;
19285;SDS011;9776;50.798;6.430;2023-04-03T07:58:43;1.70;;;1.60;;
19285;SDS011;9776;50.798;6.430;2023-04-03T08:01:10;1.67;;;1.58;;
19285;SDS011;9776;50.798;6.430;2023-04-03T08:03:37;1.70;;;1.35;;
19285;SDS011;9776;50.798;6.430;2023-04-03T08:06:05;1.63;;;1.40;;
19285;SDS011;9776;50.798;6.430;2023-04-03T08:08:34;1.60;;;1.50;;
19285;SDS011;9776;50.798;6.430;2023-04-03T08:11:01;1.60;;;1.50;;
19285;SDS011;9776;50.798;6.430;2023-04-03T08:13:30;1.90;;;1.77;;
19285;SDS011;9776;50.798;6.430;2023-04-03T08:15:57;1.73;;;1.63;;
19285;SDS011;9776;50.798;6.430;2023-04-03T08:18:32;1.67;;;1.50;;
19285;SDS011;9776;50.798;6.430;2023-04-03T08:20:59;1.70;;;1.60;;
19285;SDS011;9776;50.798;6.430;2023-04-03T08:23:25;2.22;;;1.70;;
19285;SDS011;9776;50.798;6.430;2023-04-03T08:25:53;1.40;;;1.30;;
19285;SDS011;9776;50.798;6.430;2023-04-03T08:28:20;1.58;;;1.40;;
19285;SDS011;9776;50.798;6.430;2023-04-03T08:30:47;1.67;;;1.58;;
19285;SDS011;9776;50.798;6.430;2023-04-03T08:33:13;1.65;;;1.55;;
19285;SDS011;9776;50.798;6.430;2023-04-03T08:35:40;1.50;;;1.40;;
19285;SDS011;9776;50.798;6.430;2023-04-03T08:38:08;2.65;;;2.00;;
19285;SDS011;9776;50.798;6.430;2023-04-03T08:40:35;1.30;;;1.17;;
19285;SDS011;9776;50.798;6.430;2023-04-03T08:43:07;1.50;;;1.38;;
19285;SDS011;9776;50.798;6.430;2023-04-03T08:45:55;1.70;;;1.33;;
19285;SDS011;9776;50.798;6.430;2023-04-03T08:48:24;1.77;;;1.40;;
19285;SDS011;9776;50.798;6.430;2023-04-03T08:50:54;1.30;;;1.20;;
19285;SDS011;9776;50.798;6.430;2023-04-03T08:53:25;1.38;;;1.27;;
19285;SDS011;9776;50.798;6.430;2023-04-03T08:55:57;1.48;;;1.38;;
19285;SDS011;9776;50.798;6.430;2023-04-03T08:58:26;1.38;;;1.05;;
19285;SDS011;9776;50.798;6.430;2023-04-03T09:00:57;1.48;;;1.20;;
19285;SDS011;9776;50.798;6.430;2023-04-03T09:03:28;1.10;;;1.10;;
19285;SDS011;9776;50.798;6.430;2023-04-03T09:05:57;1.25;;;1.15;;
19285;SDS011;9776;50.798;6.430;2023-04-03T09:08:29;1.50;;;1.40;;
19285;SDS011;9776;50.798;6.430;2023-04-03T09:10:59;1.40;;;1.30;;
19285;SDS011;9776;50.798;6.430;2023-04-03T09:13:39;2.00;;;1.80;;
19285;SDS011;9776;50.798;6.430;2023-04-03T09:16:16;1.50;;;1.33;;
19285;SDS011;9776;50.798;6.430;2023-04-03T09:18:52;1.98;;;1.50;;
19285;SDS011;9776;50.798;6.430;2023-04-03T09:21:27;1.38;;;1.27;;
19285;SDS011;9776;50.798;6.430;2023-04-03T09:23:58;1.23;;;1.13;;
19285;SDS011;9776;50.798;6.430;2023-04-03T09:26:29;1.35;;;1.25;;
19285;SDS011;9776;50.798;6.430;2023-04-03T09:29:02;1.02;;;1.00;;
19285;SDS011;9776;50.798;6.430;2023-04-03T09:31:35;1.15;;;1.05;;
19285;SDS011;9776;50.798;6.430;2023-04-03T09:34:04;1.23;;;1.10;;
19285;SDS011;9776;50.798;6.430;2023-04-03T09:36:37;1.30;;;1.20;;
19285;SDS011;9776;50.798;6.430;2023-04-03T09:39:06;1.35;;;1.25;;
19285;SDS011;9776;50.798;6.430;2023-04-03T09:41:36;1.88;;;1.20;;
19285;SDS011;9776;50.798;6.430;2023-04-03T09:44:17;1.42;;;1.30;;
19285;SDS011;9776;50.798;6.430;2023-04-03T09:46:46;1.90;;;0.93;;
19285;SDS011;9776;50.798;6.430;2023-04-03T09:49:13;1.00;;;0.90;;
19285;SDS011;9776;50.798;6.430;2023-04-03T09:51:40;1.33;;;0.88;;
19285;SDS011;9776;50.798;6.430;2023-04-03T09:56:52;1.30;;;1.20;;
19285;SDS011;9776;50.798;6.430;2023-04-03T09:59:22;1.33;;;1.00;;
19285;SDS011;9776;50.798;6.430;2023-04-03T10:01:56;1.20;;;1.10;;
19285;SDS011;9776;50.798;6.430;2023-04-03T10:04:24;1.30;;;1.20;;
19285;SDS011;9776;50.798;6.430;2023-04-03T10:06:52;1.20;;;1.10;;
19285;SDS011;9776;50.798;6.430;2023-04-03T10:09:20;1.15;;;1.10;;
19285;SDS011;9776;50.798;6.430;2023-04-03T10:11:58;1.27;;;1.17;;
19285;SDS011;9776;50.798;6.430;2023-04-03T10:14:31;1.30;;;1.20;;
19285;SDS011;9776;50.798;6.430;2023-04-03T10:17:00;0.90;;;0.90;;
19285;SDS011;9776;50.798;6.430;2023-04-03T10:19:38;0.77;;;0.77;;
19285;SDS011;9776;50.798;6.430;2023-04-03T10:22:19;0.90;;;0.90;;
19285;SDS011;9776;50.798;6.430;2023-04-03T10:24:51;1.08;;;0.90;;
19285;SDS011;9776;50.798;6.430;2023-04-03T10:27:26;1.10;;;1.00;;
19285;SDS011;9776;50.798;6.430;2023-04-03T10:30:13;0.80;;;0.80;;
19285;SDS011;9776;50.798;6.430;2023-04-03T10:32:55;0.80;;;0.80;;
19285;SDS011;9776;50.798;6.430;2023-04-03T10:35:30;1.20;;;0.80;;
19285;SDS011;9776;50.798;6.430;2023-04-03T10:38:07;0.90;;;0.80;;
19285;SDS011;9776;50.798;6.430;2023-04-03T10:40:44;0.60;;;0.60;;
19285;SDS011;9776;50.798;6.430;2023-04-03T10:43:18;0.93;;;0.63;;
19285;SDS011;9776;50.798;6.430;2023-04-03T10:45:55;1.15;;;0.90;;
19285;SDS011;9776;50.798;6.430;2023-04-03T10:48:33;0.93;;;0.80;;
19285;SDS011;9776;50.798;6.430;2023-04-03T10:51:10;0.95;;;0.70;;
19285;SDS011;9776;50.798;6.430;2023-04-03T10:53:50;0.70;;;0.60;;
19285;SDS011;9776;50.798;6.430;2023-04-03T10:56:24;1.25;;;0.70;;
19285;SDS011;9776;50.798;6.430;2023-04-03T10:58:59;0.80;;;0.73;;
19285;SDS011;9776;50.798;6.430;2023-04-03T11:01:35;0.90;;;0.80;;
19285;SDS011;9776;50.798;6.430;2023-04-03T11:04:05;0.70;;;0.70;;
19285;SDS011;9776;50.798;6.430;2023-04-03T11:06:34;0.80;;;0.80;;
19285;SDS011;9776;50.798;6.430;2023-04-03T11:09:07;0.70;;;0.70;;
19285;SDS011;9776;50.798;6.430;2023-04-03T11:11:43;0.60;;;0.60;;
19285;SDS011;9776;50.798;6.430;2023-04-03T11:14:11;2.00;;;0.70;;
19285;SDS011;9776;50.798;6.430;2023-04-03T11:16:47;0.70;;;0.70;;
19285;SDS011;9776;50.798;6.430;2023-04-03T11:19:19;0.55;;;0.55;;
19285;SDS011;9776;50.798;6.430;2023-04-03T11:21:51;0.45;;;0.45;;
19285;SDS011;9776;50.798;6.430;2023-04-03T11:24:24;0.60;;;0.60;;
19285;SDS011;9776;50.798;6.430;2023-04-03T11:26:53;0.50;;;0.50;;
19285;SDS011;9776;50.798;6.430;2023-04-03T11:29:22;0.55;;;0.55;;
19285;SDS011;9776;50.798;6.430;2023-04-03T11:32:03;0.75;;;0.70;;
19285;SDS011;9776;50.798;6.430;2023-04-03T11:34:36;0.63;;;0.60;;
19285;SDS011;9776;50.798;6.430;2023-04-03T11:37:11;0.77;;;0.77;;
19285;SDS011;9776;50.798;6.430;2023-04-03T11:39:46;0.70;;;0.70;;
19285;SDS011;9776;50.798;6.430;2023-04-03T11:42:22;0.57;;;0.57;;
19285;SDS011;9776;50.798;6.430;2023-04-03T11:45:00;0.60;;;0.60;;
19285;SDS011;9776;50.798;6.430;2023-04-03T11:47:51;1.00;;;0.80;;
19285;SDS011;9776;50.798;6.430;2023-04-03T11:53:30;0.43;;;0.43;;
19285;SDS011;9776;50.798;6.430;2023-04-03T11:56:00;0.60;;;0.60;;
19285;SDS011;9776;50.798;6.430;2023-04-03T11:58:28;0.55;;;0.55;;
19285;SDS011;9776;50.798;6.430;2023-04-03T12:01:04;0.70;;;0.60;;
19285;SDS011;9776;50.798;6.430;2023-04-03T12:12:41;1.80;;;0.50;;
19285;SDS011;9776;50.798;6.430;2023-04-03T12:15:22;0.70;;;0.68;;
19285;SDS011;9776;50.798;6.430;2023-04-03T12:17:51;0.73;;;0.40;;
19285;SDS011;9776;50.798;6.430;2023-04-03T12:23:28;0.63;;;0.60;;
19285;SDS011;9776;50.798;6.430;2023-04-03T12:26:01;0.68;;;0.65;;
19285;SDS011;9776;50.798;6.430;2023-04-03T12:28:46;0.63;;;0.50;;
19285;SDS011;9776;50.798;6.430;2023-04-03T12:31:17;0.60;;;0.60;;
19285;SDS011;9776;50.798;6.430;2023-04-03T12:33:50;0.60;;;0.60;;
19285;SDS011;9776;50.798;6.430;2023-04-03T12:36:30;0.70;;;0.70;;
19285;SDS011;9776;50.798;6.430;2023-04-03T12:39:12;0.88;;;0.80;;
19285;SDS011;9776;50.798;6.430;2023-04-03T12:41:50;0.68;;;0.68;;
19285;SDS011;9776;50.798;6.430;2023-04-03T12:44:33;0.70;;;0.70;;
19285;SDS011;9776;50.798;6.430;2023-04-03T12:47:08;0.63;;;0.63;;
19285;SDS011;9776;50.798;6.430;2023-04-03T12:49:48;0.60;;;0.60;;
19285;SDS011;9776;50.798;6.430;2023-04-03T12:52:22;0.60;;;0.60;;
19285;SDS011;9776;50.798;6.430;2023-04-03T12:54:58;0.65;;;0.60;;
19285;SDS011;9776;50.798;6.430;2023-04-03T12:57:29;0.77;;;0.65;;
19285;SDS011;9776;50.798;6.430;2023-04-03T12:59:57;0.68;;;0.60;;
19285;SDS011;9776;50.798;6.430;2023-04-03T13:02:26;0.60;;;0.60;;
19285;SDS011;9776;50.798;6.430;2023-04-03T13:04:55;0.70;;;0.70;;
19285;SDS011;9776;50.798;6.430;2023-04-03T13:07:26;0.70;;;0.70;;
19285;SDS011;9776;50.798;6.430;2023-04-03T13:10:09;0.95;;;0.60;;
19285;SDS011;9776;50.798;6.430;2023-04-03T13:12:48;4.05;;;3.85;;
19285;SDS011;9776;50.798;6.430;2023-04-03T13:15:17;2.97;;;2.80;;
19285;SDS011;9776;50.798;6.430;2023-04-03T13:17:45;1.42;;;0.93;;
19285;SDS011;9776;50.798;6.430;2023-04-03T13:20:17;0.90;;;0.90;;
19285;SDS011;9776;50.798;6.430;2023-04-03T13:22:49;1.38;;;1.27;;
19285;SDS011;9776;50.798;6.430;2023-04-03T13:25:21;2.22;;;2.13;;
19285;SDS011;9776;50.798;6.430;2023-04-03T13:27:50;0.90;;;0.90;;
19285;SDS011;9776;50.798;6.430;2023-04-03T13:30:20;0.82;;;0.82;;
19285;SDS011;9776;50.798;6.430;2023-04-03T13:32:50;0.80;;;0.80;;
19285;SDS011;9776;50.798;6.430;2023-04-03T13:35:28;1.20;;;1.10;;
19285;SDS011;9776;50.798;6.430;2023-04-03T13:37:59;0.90;;;0.90;;
19285;SDS011;9776;50.798;6.430;2023-04-03T13:40:26;0.93;;;0.93;;
19285;SDS011;9776;50.798;6.430;2023-04-03T13:43:01;0.98;;;0.98;;
19285;SDS011;9776;50.798;6.430;2023-04-03T13:45:30;0.93;;;0.90;;
19285;SDS011;9776;50.798;6.430;2023-04-03T13:48:08;1.30;;;1.20;;
19285;SDS011;9776;50.798;6.430;2023-04-03T13:50:50;1.20;;;1.10;;
19285;SDS011;9776;50.798;6.430;2023-04-03T13:53:20;0.93;;;0.93;;
19285;SDS011;9776;50.798;6.430;2023-04-03T13:56:04;1.00;;;1.00;;
19285;SDS011;9776;50.798;6.430;2023-04-03T13:58:34;0.90;;;0.90;;
19285;SDS011;9776;50.798;6.430;2023-04-03T14:01:07;1.10;;;1.10;;
19285;SDS011;9776;50.798;6.430;2023-04-03T14:03:40;0.98;;;0.98;;
19285;SDS011;9776;50.798;6.430;2023-04-03T14:06:12;1.20;;;1.20;;
19285;SDS011;9776;50.798;6.430;2023-04-03T14:08:43;1.45;;;1.35;;
19285;SDS011;9776;50.798;6.430;2023-04-03T14:11:13;1.80;;;1.70;;
19285;SDS011;9776;50.798;6.430;2023-04-03T14:13:42;2.35;;;2.25;;
19285;SDS011;9776;50.798;6.430;2023-04-03T14:16:14;2.22;;;2.13;;
19285;SDS011;9776;50.798;6.430;2023-04-03T14:18:43;2.80;;;2.67;;
19285;SDS011;9776;50.798;6.430;2023-04-03T14:21:11;3.13;;;3.00;;
19285;SDS011;9776;50.798;6.430;2023-04-03T14:23:38;4.30;;;4.10;;
19285;SDS011;9776;50.798;6.430;2023-04-03T14:26:09;5.45;;;5.15;;
19285;SDS011;9776;50.798;6.430;2023-04-03T14:28:38;4.53;;;4.32;;
19285;SDS011;9776;50.798;6.430;2023-04-03T14:31:06;4.47;;;4.18;;
19285;SDS011;9776;50.798;6.430;2023-04-03T14:33:33;3.97;;;3.78;;
19285;SDS011;9776;50.798;6.430;2023-04-03T14:36:04;3.28;;;3.17;;
19285;SDS011;9776;50.798;6.430;2023-04-03T14:38:37;2.95;;;2.85;;
19285;SDS011;9776;50.798;6.430;2023-04-03T14:41:04;2.38;;;2.28;;
19285;SDS011;9776;50.798;6.430;2023-04-03T14:43:32;2.22;;;2.13;;
19285;SDS011;9776;50.798;6.430;2023-04-03T14:45:59;2.25;;;2.15;;
19285;SDS011;9776;50.798;6.430;2023-04-03T14:48:26;1.67;;;1.58;;
19285;SDS011;9776;50.798;6.430;2023-04-03T14:50:54;1.52;;;1.42;;
19285;SDS011;9776;50.798;6.430;2023-04-03T14:53:21;1.88;;;1.77;;
19285;SDS011;9776;50.798;6.430;2023-04-03T14:55:50;1.70;;;1.60;;
19285;SDS011;9776;50.798;6.430;2023-04-03T14:58:18;1.50;;;1.50;;
19285;SDS011;9776;50.798;6.430;2023-04-03T15:00:47;1.50;;;1.40;;
19285;SDS011;9776;50.798;6.430;2023-04-03T15:03:14;1.33;;;1.30;;
19285;SDS011;9776;50.798;6.430;2023-04-03T15:05:42;1.38;;;1.27;;
19285;SDS011;9776;50.798;6.430;2023-04-03T15:08:13;1.60;;;1.50;;
19285;SDS011;9776;50.798;6.430;2023-04-03T15:10:45;1.77;;;1.20;;
19285;SDS011;9776;50.798;6.430;2023-04-03T15:13:12;1.33;;;1.23;;
19285;SDS011;9776;50.798;6.430;2023-04-03T15:15:39;1.50;;;1.40;;
19285;SDS011;9776;50.798;6.430;2023-04-03T15:18:09;1.20;;;1.20;;
19285;SDS011;9776;50.798;6.430;2023-04-03T15:20:40;1.65;;;1.30;;
19285;SDS011;9776;50.798;6.430;2023-04-03T15:23:08;1.52;;;1.42;;
19285;SDS011;9776;50.798;6.430;2023-04-03T15:25:36;1.10;;;1.10;;
19285;SDS011;9776;50.798;6.430;2023-04-03T15:28:03;1.58;;;1.48;;
19285;SDS011;9776;50.798;6.430;2023-04-03T15:30:31;1.60;;;1.50;;
19285;SDS011;9776;50.798;6.430;2023-04-03T15:33:09;1.40;;;1.30;;
19285;SDS011;9776;50.798;6.430;2023-04-03T15:35:35;1.20;;;1.10;;